Terminal Aerodrome Forecast
Issued by NWS

Current Version | Previous Version | Graphics & Text | Print | Product List | Glossary On
Versions: 1 2 3 4 5 6 7 8 9 10 11 12 13 14 15 16 17 18 19 20 21 22 23 24 25
000
FTUS41 KRLX 261100
TAFCKB
TAF
KCKB 261130Z 2612/2712 19006KT P6SM BKN070
     FM261400 21010G17KT P6SM BKN050
     FM261900 25013G23KT P6SM -SHRA VCTS BKN040CB
     FM262100 31011G20KT 3SM -SHRA BKN030
     FM270000 32007KT 5SM -SHRA BR OVC015
     FM270700 30005KT P6SM BKN015
     FM271100 31006KT P6SM BKN020=

USA.gov is the U.S. government's official web portal to all federal, state and local government web resources and services.